Time;durP1;ratioP1;P1;durP2;ratioP2;P2;SDS_P1;SDS_P2;PMS_P1;PMS_P2;Temp;Humidity;BMP_temperature;BMP_pressure;BME280_temperature;BME280_humidity;BME280_pressure;Samples;Min_cycle;Max_cycle;Signal;HPM_P1;HPM_P2
2023/09/10 00:02:57;;;;;;;8.93;7.73;;;;;;;12.78;100.00;97990.66;6219909;28;20222;-86
2023/09/10 00:06:00;;;;;;;9.27;7.53;;;;;;;13.11;100.00;98034.41;6214358;28;20216;-86
2023/09/10 00:09:03;;;;;;;8.47;7.60;;;;;;;12.81;100.00;98011.56;6235066;28;20212;-87
2023/09/10 00:12:06;;;;;;;9.10;8.30;;;;;;;12.74;100.00;97988.75;6209757;28;20454;-87
2023/09/10 00:15:08;;;;;;;14.70;9.03;;;;;;;12.92;100.00;98023.19;6229527;28;20235;-87
2023/09/10 00:18:11;;;;;;;8.67;7.73;;;;;;;12.79;100.00;98035.06;6181691;28;20644;-87
2023/09/10 00:21:14;;;;;;;9.30;8.40;;;;;;;12.80;100.00;98011.81;6180089;28;20561;-87
2023/09/10 00:24:16;;;;;;;13.97;9.87;;;;;;;12.60;100.00;97969.56;6189598;28;20773;-87
2023/09/10 00:27:18;;;;;;;9.00;8.10;;;;;;;12.89;100.00;98026.38;6180201;28;20237;-87
2023/09/10 00:30:20;;;;;;;8.93;8.03;;;;;;;11.66;100.00;97825.38;6184941;28;20271;-87
2023/09/10 00:33:22;;;;;;;9.37;8.10;;;;;;;12.91;100.00;98027.75;6183865;28;20228;-87
2023/09/10 00:36:25;;;;;;;8.27;7.47;;;;;;;12.89;100.00;98032.50;6187993;28;20228;-87
2023/09/10 00:39:27;;;;;;;10.57;8.47;;;;;;;13.05;100.00;98040.72;6181659;28;20277;-88
2023/09/10 00:42:29;;;;;;;9.70;8.80;;;;;;;13.01;100.00;98028.94;6170186;28;20233;-88
2023/09/10 00:45:32;;;;;;;10.77;9.60;;;;;;;12.83;100.00;98012.13;6180843;28;20235;-89
2023/09/10 00:48:36;;;;;;;11.13;9.93;;;;;;;12.99;100.00;98039.84;6187386;28;20334;-84
2023/09/10 00:51:39;;;;;;;9.90;8.90;;;;;;;13.02;100.00;98041.25;6169739;28;20654;-87
2023/09/10 00:54:42;;;;;;;10.00;8.60;;;;;;;12.76;100.00;98005.31;6170065;28;20231;-87
2023/09/10 00:57:45;;;;;;;9.63;8.63;;;;;;;12.73;100.00;98003.16;6170683;28;20322;-87
2023/09/10 01:00:48;;;;;;;12.60;8.70;;;;;;;12.01;100.00;97889.97;6168127;28;20229;-85
2023/09/10 01:03:50;;;;;;;12.27;10.60;;;;;;;12.94;100.00;98036.31;6183835;28;20730;-84
2023/09/10 01:06:53;;;;;;;9.23;8.27;;;;;;;12.76;100.00;98008.84;6170599;28;20237;-84
2023/09/10 01:09:55;;;;;;;9.60;8.70;;;;;;;12.94;100.00;98042.47;6185600;28;20518;-84
2023/09/10 01:13:15;;;;;;;8.90;8.00;;;;;;;12.57;100.00;97978.91;6186922;28;20697;-84
2023/09/10 01:16:35;;;;;;;9.60;8.70;;;;;;;12.65;100.00;97996.38;6167613;28;20243;-85
2023/09/10 01:19:52;;;;;;;8.93;8.13;;;;;;;12.94;100.00;98036.31;6198443;28;20245;-84
2023/09/10 01:23:07;;;;;;;9.57;8.67;;;;;;;12.91;100.00;98029.63;6168609;28;20243;-84
2023/09/10 01:26:09;;;;;;;9.83;8.87;;;;;;;12.61;100.00;98001.44;6170364;28;20232;-85
2023/09/10 01:29:15;;;;;;;10.73;9.20;;;;;;;12.67;100.00;98015.66;6187100;28;20232;-84
2023/09/10 01:32:30;;;;;;;10.70;8.90;;;;;;;12.82;100.00;98033.78;6180550;28;20302;-84
2023/09/10 01:35:42;;;;;;;9.33;8.43;;;;;;;12.02;100.00;97921.00;6202456;28;20225;-84
2023/09/10 01:38:55;;;;;;;9.67;8.73;;;;;;;12.59;100.00;98006.19;6194347;28;20221;-83
2023/09/10 01:41:58;;;;;;;9.33;8.13;;;;;;;12.41;100.00;97974.41;6180957;28;20264;-84
2023/09/10 01:45:00;;;;;;;8.90;8.17;;;;;;;12.60;100.00;98005.13;6183173;28;20706;-84
2023/09/10 01:48:03;;;;;;;9.60;8.60;;;;;;;12.58;100.00;98001.91;6179466;28;20604;-86
2023/09/10 01:51:05;;;;;;;9.37;8.30;;;;;;;12.83;100.00;98028.16;6186518;28;20300;-84
2023/09/10 01:54:08;;;;;;;8.53;7.70;;;;;;;12.58;100.00;98007.25;6167039;28;20215;-83
2023/09/10 01:57:10;;;;;;;8.00;7.20;;;;;;;12.14;100.00;97923.53;6185278;28;20648;-84
2023/09/10 02:00:13;;;;;;;8.40;7.60;;;;;;;12.68;100.00;98017.28;6180905;28;20664;-88
2023/09/10 02:03:16;;;;;;;7.90;7.10;;;;;;;12.70;100.00;98030.38;6184079;28;20228;-88
2023/09/10 02:06:18;;;;;;;8.33;7.57;;;;;;;12.46;100.00;97982.47;6184829;28;20208;-87
2023/09/10 02:09:20;;;;;;;8.97;8.17;;;;;;;12.37;100.00;97978.63;6181626;28;20305;-88
2023/09/10 02:12:22;;;;;;;12.40;11.10;;;;;;;11.78;100.00;97885.63;6204818;28;20619;-88
2023/09/10 02:15:24;;;;;;;10.03;9.03;;;;;;;12.36;100.00;98001.03;6180244;28;20236;-88
2023/09/10 02:18:28;;;;;;;8.50;7.60;;;;;;;12.24;100.00;97971.75;6185402;28;20237;-88
2023/09/10 02:21:33;;;;;;;8.80;7.77;;;;;;;12.70;100.00;98046.41;6171425;28;20216;-83
2023/09/10 02:24:35;;;;;;;10.33;8.03;;;;;;;12.31;100.00;98000.97;6183745;28;20264;-84
2023/09/10 02:27:37;;;;;;;8.57;7.67;;;;;;;12.56;100.00;98045.94;6184523;28;20702;-83
2023/09/10 02:30:39;;;;;;;9.47;8.03;;;;;;;11.98;100.00;97962.56;6182471;28;20232;-84
2023/09/10 02:33:41;;;;;;;8.37;7.57;;;;;;;12.10;100.00;97978.50;6177726;28;20236;-84
2023/09/10 02:36:43;;;;;;;8.63;7.87;;;;;;;12.41;100.00;98035.84;6185464;28;20294;-84
2023/09/10 02:39:45;;;;;;;9.27;8.37;;;;;;;11.73;100.00;97922.09;6178580;28;20270;-84
2023/09/10 02:42:47;;;;;;;8.97;8.17;;;;;;;12.50;100.00;98039.72;6180340;28;20282;-83
2023/09/10 02:45:50;;;;;;;8.73;7.93;;;;;;;11.40;100.00;97865.00;6184948;28;20245;-83
2023/09/10 02:48:52;;;;;;;8.73;7.80;;;;;;;12.26;100.00;98011.56;6184240;28;20228;-83
2023/09/10 02:51:55;;;;;;;9.13;8.27;;;;;;;11.94;100.00;97955.28;6176423;28;20228;-83
2023/09/10 02:54:57;;;;;;;10.27;9.07;;;;;;;12.07;100.00;97985.16;6162311;28;20722;-84
2023/09/10 02:57:59;;;;;;;9.27;8.37;;;;;;;11.87;100.00;97979.47;6201860;28;20227;-83
2023/09/10 03:01:03;;;;;;;9.70;8.80;;;;;;;10.82;100.00;97834.16;6182173;28;20710;-83
2023/09/10 03:04:06;;;;;;;8.60;7.80;;;;;;;11.49;100.00;97919.59;6168574;28;20725;-82
2023/09/10 03:07:08;;;;;;;10.97;8.90;;;;;;;11.79;100.00;97975.31;6168559;28;20718;-83
2023/09/10 03:10:11;;;;;;;8.80;7.97;;;;;;;12.27;100.00;98053.28;6163450;28;20314;-84
2023/09/10 03:13:13;;;;;;;9.40;8.50;;;;;;;12.02;100.00;98014.44;6179074;28;20225;-83
2023/09/10 03:16:16;;;;;;;12.10;8.63;;;;;;;11.63;100.00;97960.91;6169011;28;20243;-84
2023/09/10 03:19:18;;;;;;;9.53;8.50;;;;;;;10.96;100.00;97867.47;6202082;28;20281;-84
2023/09/10 03:22:20;;;;;;;8.57;7.77;;;;;;;11.93;100.00;98018.56;6177906;28;20706;-84
2023/09/10 03:25:22;;;;;;;9.20;8.30;;;;;;;12.11;100.00;98052.22;6186317;28;20315;-83
2023/09/10 03:28:24;;;;;;;8.90;8.07;;;;;;;11.83;100.00;98010.38;6171648;28;20749;-84
2023/09/10 03:31:28;;;;;;;10.57;9.50;;;;;;;11.81;100.00;98002.56;6188366;28;20236;-86
2023/09/10 03:34:32;;;;;;;9.07;8.13;;;;;;;12.05;100.00;98050.50;6203944;28;20330;-87
2023/09/10 03:37:34;;;;;;;11.30;9.60;;;;;;;11.83;100.00;98035.22;6179014;28;20241;-86
2023/09/10 03:40:38;;;;;;;14.50;11.47;;;;;;;11.99;100.00;98046.94;6189158;28;20224;-87
2023/09/10 03:43:40;;;;;;;11.63;9.90;;;;;;;11.39;100.00;97953.28;6187179;28;20294;-87
2023/09/10 03:46:42;;;;;;;9.97;8.40;;;;;;;11.86;100.00;98025.91;6188740;28;20231;-87
2023/09/10 03:49:45;;;;;;;14.20;10.43;;;;;;;11.82;100.00;98036.28;6189514;28;20323;-88
2023/09/10 03:52:47;;;;;;;11.67;9.60;;;;;;;11.69;100.00;98011.72;6172416;28;20216;-89
2023/09/10 03:55:49;;;;;;;9.93;8.93;;;;;;;11.70;100.00;98018.66;6190067;28;20246;-89
2023/09/10 03:58:51;;;;;;;9.70;8.70;;;;;;;11.75;100.00;98034.75;6186899;28;20232;-88
2023/09/10 04:01:58;;;;;;;13.93;12.13;;;;;;;11.45;100.00;97985.13;6192596;28;20255;-87
2023/09/10 04:05:02;;;;;;;14.03;12.37;;;;;;;11.55;100.00;98017.34;6216915;28;20213;-88
2023/09/10 04:08:05;;;;;;;17.03;13.17;;;;;;;11.60;100.00;98025.44;6207845;28;20280;-87
2023/09/10 04:11:08;;;;;;;13.80;10.93;;;;;;;11.78;100.00;98047.63;6235679;28;20276;-87
2023/09/10 04:14:11;;;;;;;10.93;9.87;;;;;;;11.30;100.00;97980.34;6221079;28;20223;-87
2023/09/10 04:17:17;;;;;;;9.57;8.57;;;;;;;10.95;100.00;97929.81;6214967;28;20257;-87
2023/09/10 04:20:21;;;;;;;10.60;9.37;;;;;;;11.25;100.00;97982.09;6198249;28;20252;-87
2023/09/10 04:23:23;;;;;;;11.33;9.07;;;;;;;11.28;100.00;97998.44;6203267;28;20235;-88
2023/09/10 04:26:26;;;;;;;9.63;8.63;;;;;;;11.25;100.00;97984.78;6212189;28;20229;-87
2023/09/10 04:29:28;;;;;;;9.83;8.93;;;;;;;11.36;100.00;98015.91;6205680;28;20220;-87
2023/09/10 04:32:30;;;;;;;9.60;8.70;;;;;;;11.11;100.00;97974.38;6201904;28;20232;-89
2023/09/10 04:35:33;;;;;;;10.37;9.27;;;;;;;11.19;100.00;97983.06;6193772;28;20225;-89
2023/09/10 04:38:36;;;;;;;9.33;8.43;;;;;;;11.57;100.00;98049.91;6172904;28;20233;-88
2023/09/10 04:41:39;;;;;;;10.33;9.33;;;;;;;11.18;100.00;98006.25;6177308;28;20221;-87
2023/09/10 04:44:43;;;;;;;9.27;8.27;;;;;;;11.25;100.00;98001.56;6183006;28;20240;-90
2023/09/10 04:47:45;;;;;;;9.20;8.33;;;;;;;11.14;100.00;97997.09;6188273;28;20267;-88
2023/09/10 04:50:47;;;;;;;9.93;9.03;;;;;;;11.42;100.00;98054.16;6184409;28;20373;-90
2023/09/10 04:53:49;;;;;;;9.50;8.60;;;;;;;11.11;100.00;98010.91;6186580;28;20233;-89
2023/09/10 04:56:53;;;;;;;10.83;9.17;;;;;;;11.08;100.00;97995.38;6182408;28;20237;-88
2023/09/10 05:00:00;;;;;;;10.43;9.33;;;;;;;10.89;100.00;97967.28;6169718;28;20237;-83
2023/09/10 05:03:03;;;;;;;9.97;8.97;;;;;;;11.03;100.00;97981.94;6164230;28;20592;-83
2023/09/10 05:06:07;;;;;;;8.20;7.40;;;;;;;11.06;100.00;97984.94;6180081;28;20308;-83
2023/09/10 05:09:09;;;;;;;9.50;8.60;;;;;;;11.13;100.00;97984.81;6178420;28;20225;-89
2023/09/10 05:12:12;;;;;;;10.53;9.27;;;;;;;11.50;100.00;98043.91;6176146;28;20279;-89
2023/09/10 05:15:14;;;;;;;8.73;7.83;;;;;;;10.65;100.00;97903.41;6157934;28;20218;-88
2023/09/10 05:18:16;;;;;;;11.03;9.93;;;;;;;11.43;100.00;98021.94;6176634;28;20209;-88
2023/09/10 05:21:20;;;;;;;8.63;7.83;;;;;;;11.42;100.00;98016.81;6161942;28;20336;-86
2023/09/10 05:24:22;;;;;;;10.10;9.10;;;;;;;11.63;100.00;98061.50;6177527;28;20365;-87
2023/09/10 05:27:25;;;;;;;10.43;9.33;;;;;;;11.01;100.00;97971.53;6177718;28;20220;-87
2023/09/10 05:30:27;;;;;;;11.93;10.13;;;;;;;11.25;100.00;98012.25;6174199;28;20233;-87
2023/09/10 05:33:29;;;;;;;9.97;9.03;;;;;;;11.41;100.00;98036.53;6163778;28;20225;-87
2023/09/10 05:36:32;;;;;;;10.10;9.13;;;;;;;10.65;100.00;97913.25;6179812;28;20221;-83
2023/09/10 05:39:35;;;;;;;10.30;9.17;;;;;;;11.01;100.00;97976.84;6159290;28;20229;-86
2023/09/10 05:42:37;;;;;;;16.80;13.93;;;;;;;11.05;100.00;97977.19;6175789;28;20232;-87
2023/09/10 05:45:39;;;;;;;12.07;10.60;;;;;;;11.55;100.00;98048.53;6179816;28;20360;-86
2023/09/10 05:48:42;;;;;;;10.70;9.60;;;;;;;11.51;100.00;98028.72;6177843;28;20217;-86
2023/09/10 05:51:44;;;;;;;12.57;11.33;;;;;;;11.78;100.00;98079.66;6178917;28;20237;-85
2023/09/10 05:54:47;;;;;;;12.00;10.80;;;;;;;11.72;100.00;98061.91;6178982;28;20232;-87
2023/09/10 05:57:52;;;;;;;11.30;10.17;;;;;;;11.63;100.00;98035.63;6160967;28;20227;-86
2023/09/10 06:00:55;;;;;;;11.63;10.53;;;;;;;12.03;100.00;98084.69;6162067;28;20225;-87
2023/09/10 06:03:59;;;;;;;10.97;9.97;;;;;;;11.90;100.00;98055.59;6177879;28;20310;-87
2023/09/10 06:07:03;;;;;;;10.43;9.37;;;;;;;11.93;100.00;98077.28;6185080;28;20311;-87
2023/09/10 06:10:09;;;;;;;11.13;10.13;;;;;;;11.91;100.00;98062.56;6175162;28;20600;-85
2023/09/10 06:13:12;;;;;;;17.23;14.03;;;;;;;11.96;100.00;98052.75;6172935;28;20228;-83
2023/09/10 06:16:15;;;;;;;28.07;21.40;;;;;;;12.19;100.00;98091.06;6162691;28;20240;-85
2023/09/10 06:19:18;;;;;;;17.40;15.40;;;;;;;12.21;100.00;98086.28;6173846;28;20239;-88
2023/09/10 06:22:21;;;;;;;15.37;13.73;;;;;;;11.63;100.00;97990.28;6179819;28;20229;-87
2023/09/10 06:25:24;;;;;;;14.77;12.37;;;;;;;12.06;100.00;98044.91;6178936;28;20723;-87
2023/09/10 06:28:27;;;;;;;21.80;19.40;;;;;;;10.95;100.00;97862.38;6178041;28;20225;-87
2023/09/10 06:31:29;;;;;;;40.87;33.57;;;;;;;12.45;100.00;98097.63;6172964;28;20740;-87
2023/09/10 06:34:32;;;;;;;38.70;32.23;;;;;;;12.51;100.00;98081.47;6169303;28;20599;-88
2023/09/10 06:37:34;;;;;;;158.30;140.30;;;;;;;12.65;100.00;98103.28;6180957;28;20327;-87
2023/09/10 06:40:36;;;;;;;34.87;30.90;;;;;;;12.36;100.00;98030.44;6170436;28;20240;-87
2023/09/10 06:43:39;;;;;;;51.03;42.87;;;;;;;12.34;100.00;98021.88;6179866;28;20236;-82
2023/09/10 06:46:48;;;;;;;70.13;58.20;;;;;;;12.95;100.00;98104.78;6183265;28;20252;-86
2023/09/10 06:49:50;;;;;;;59.63;48.27;;;;;;;12.74;100.00;98058.25;6185245;28;20290;-87
2023/09/10 06:52:52;;;;;;;43.30;36.17;;;;;;;13.16;100.00;98109.38;6166183;28;20221;-85
2023/09/10 06:55:56;;;;;;;20.40;17.80;;;;;;;13.33;100.00;98112.00;6168208;28;20291;-85
2023/09/10 06:58:58;;;;;;;17.67;15.83;;;;;;;13.45;100.00;98125.25;6168835;28;20232;-84
2023/09/10 07:02:00;;;;;;;13.70;12.00;;;;;;;13.29;100.00;98065.41;6185180;28;20221;-84
2023/09/10 07:05:03;;;;;;;12.40;11.20;;;;;;;13.52;100.00;98078.53;6186206;28;20442;-84
2023/09/10 07:08:06;;;;;;;11.43;10.33;;;;;;;13.68;100.00;98095.56;6175777;28;20235;-84
2023/09/10 07:11:08;;;;;;;11.63;10.47;;;;;;;13.85;100.00;98093.59;6186454;28;20785;-84
2023/09/10 07:14:10;;;;;;;10.93;9.90;;;;;;;14.15;100.00;98111.84;6172103;28;20228;-84
2023/09/10 07:17:12;;;;;;;9.97;9.07;;;;;;;14.32;100.00;98106.34;6185781;28;20678;-83
2023/09/10 07:20:16;;;;;;;10.07;9.13;;;;;;;14.32;100.00;98079.53;6188219;28;20221;-83
2023/09/10 07:23:18;;;;;;;9.27;8.47;;;;;;;14.67;100.00;98105.03;6189045;28;20298;-83
2023/09/10 07:26:20;;;;;;;9.00;8.20;;;;;;;14.78;100.00;98109.44;6204861;28;20579;-83
2023/09/10 07:29:22;;;;;;;9.87;8.93;;;;;;;14.62;100.00;98038.78;6191846;28;20823;-82
2023/09/10 07:32:25;;;;;;;8.17;7.47;;;;;;;15.05;100.00;98071.75;6174280;28;20228;-84
2023/09/10 07:35:28;;;;;;;8.40;7.70;;;;;;;15.25;100.00;98065.66;6204150;28;20236;-83
2023/09/10 07:38:30;;;;;;;8.00;7.30;;;;;;;15.51;100.00;98069.25;6188520;28;20225;-83
2023/09/10 07:41:32;;;;;;;8.70;7.80;;;;;;;15.81;100.00;98081.16;6173142;28;20217;-84
2023/09/10 07:44:34;;;;;;;8.13;7.43;;;;;;;15.94;100.00;98064.53;6188048;28;20792;-82
2023/09/10 07:47:36;;;;;;;7.73;7.13;;;;;;;16.49;100.00;98116.72;6189851;28;20303;-84
2023/09/10 07:50:38;;;;;;;8.33;7.63;;;;;;;16.09;100.00;98013.47;6171416;28;20236;-83
2023/09/10 07:53:40;;;;;;;13.10;11.80;;;;;;;16.97;100.00;98111.88;6188447;28;20225;-83
2023/09/10 07:56:45;;;;;;;11.70;10.60;;;;;;;17.03;100.00;98094.63;6173417;28;20714;-83
2023/09/10 07:59:47;;;;;;;8.40;7.60;;;;;;;17.07;100.00;98065.28;6185557;28;20266;-84
2023/09/10 08:02:49;;;;;;;9.07;8.13;;;;;;;17.34;99.75;98076.50;6205769;28;20221;-82
2023/09/10 08:05:51;;;;;;;8.03;7.33;;;;;;;17.64;97.03;98094.41;6169365;28;20318;-83
2023/09/10 08:08:53;;;;;;;7.93;6.77;;;;;;;17.85;95.82;98083.53;6192813;28;20329;-83
2023/09/10 08:11:56;;;;;;;7.53;6.80;;;;;;;18.12;93.64;98105.44;6173418;28;20714;-85
2023/09/10 08:14:58;;;;;;;7.60;6.77;;;;;;;18.34;92.44;98117.72;6173500;28;20323;-83
2023/09/10 08:18:00;;;;;;;9.23;6.47;;;;;;;18.49;90.32;98109.50;6171459;28;20374;-82
2023/09/10 08:21:04;;;;;;;9.07;6.53;;;;;;;18.65;89.64;98116.38;6188828;28;20223;-86
2023/09/10 08:24:09;;;;;;;8.67;6.30;;;;;;;18.23;87.78;98020.72;6170705;28;20228;-84
2023/09/10 08:27:14;;;;;;;6.80;6.20;;;;;;;19.00;86.47;98111.75;6186358;28;20209;-83
2023/09/10 08:30:17;;;;;;;7.23;6.47;;;;;;;18.85;86.20;98060.63;6190682;28;20228;-84
2023/09/10 08:33:19;;;;;;;7.43;6.20;;;;;;;19.00;85.00;98068.56;6171163;28;20212;-86
2023/09/10 08:36:21;;;;;;;6.93;6.23;;;;;;;18.84;82.65;98015.84;6206865;28;20229;-86
2023/09/10 08:39:23;;;;;;;6.43;5.83;;;;;;;19.14;82.34;98049.78;6186668;28;20750;-87
2023/09/10 08:42:35;;;;;;;10.57;7.20;;;;;;;19.94;74.68;98101.19;6189801;28;21576;-84
2023/09/10 08:45:37;;;;;;;8.23;6.83;;;;;;;19.75;76.47;98043.59;6202644;28;20243;-86
2023/09/10 08:48:41;;;;;;;6.40;5.77;;;;;;;20.27;77.89;98110.16;6188723;28;20220;-81
2023/09/10 08:51:44;;;;;;;6.90;6.20;;;;;;;20.19;77.14;98064.84;6173006;28;20217;-81
2023/09/10 08:54:46;;;;;;;7.77;6.87;;;;;;;20.53;76.40;98101.66;6187690;28;20314;-83
2023/09/10 08:57:50;;;;;;;7.77;6.30;;;;;;;20.23;75.81;98021.75;6187714;28;20216;-84
2023/09/10 09:00:54;;;;;;;6.53;6.00;;;;;;;20.41;75.42;98034.44;6181871;28;20651;-80
2023/09/10 09:03:57;;;;;;;9.10;6.60;;;;;;;20.50;72.75;98016.47;6184015;28;20583;-83
2023/09/10 09:07:02;;;;;;;7.47;6.20;;;;;;;21.00;67.10;98054.53;6188986;28;20705;-83
2023/09/10 09:10:08;;;;;;;6.73;6.13;;;;;;;21.26;64.29;98060.25;6171159;28;20260;-84
2023/09/10 09:13:13;;;;;;;6.80;6.20;;;;;;;21.67;64.21;98080.28;6170943;28;20314;-85
2023/09/10 09:16:15;;;;;;;6.93;6.23;;;;;;;21.90;63.07;98109.88;6205798;28;20375;-85
2023/09/10 09:19:19;;;;;;;7.00;6.30;;;;;;;21.89;63.38;98069.50;6185265;28;20232;-85
2023/09/10 09:22:23;;;;;;;6.73;6.13;;;;;;;22.28;61.68;98100.66;6200353;28;20264;-86
2023/09/10 09:25:26;;;;;;;6.60;6.00;;;;;;;22.18;61.01;98055.56;6183396;28;20236;-85
2023/09/10 09:28:30;;;;;;;9.67;6.50;;;;;;;22.24;58.55;98054.34;6167680;28;20228;-86
2023/09/10 09:31:32;;;;;;;9.17;6.00;;;;;;;22.22;59.60;98050.34;6184320;28;20248;-86
2023/09/10 09:34:34;;;;;;;7.10;6.37;;;;;;;22.52;57.61;98060.44;6176200;28;20236;-86
2023/09/10 09:37:37;;;;;;;7.03;6.32;;;;;;;22.87;56.80;98096.75;6187239;28;20742;-86
2023/09/10 09:40:39;;;;;;;7.63;6.57;;;;;;;22.62;57.17;98057.47;6170813;28;20232;-86
2023/09/10 09:43:42;;;;;;;7.25;6.32;;;;;;;22.60;55.77;98020.84;6205422;28;20721;-86
2023/09/10 09:46:45;;;;;;;8.87;6.27;;;;;;;22.95;55.98;98045.47;6208072;28;20216;-85
2023/09/10 09:49:48;;;;;;;6.43;5.82;;;;;;;23.29;56.64;98093.75;6215045;28;20247;-86
2023/09/10 09:52:55;;;;;;;6.25;5.72;;;;;;;23.23;57.03;98090.38;6216794;28;20292;-86
2023/09/10 09:55:59;;;;;;;9.02;6.20;;;;;;;23.08;58.54;98056.25;6227118;28;20295;-85
2023/09/10 09:59:02;;;;;;;8.63;6.07;;;;;;;23.09;57.73;98038.03;6219596;28;20208;-86
2023/09/10 10:02:04;;;;;;;7.30;6.13;;;;;;;23.10;56.35;98024.16;6228780;28;20252;-86
2023/09/10 10:05:08;;;;;;;7.95;5.75;;;;;;;23.58;55.62;98077.66;6217679;28;20216;-86
2023/09/10 10:08:11;;;;;;;7.10;6.35;;;;;;;23.29;55.22;98004.03;6215506;28;20236;-86
2023/09/10 10:11:13;;;;;;;10.38;6.57;;;;;;;23.62;55.04;98051.44;6201012;28;20240;-85
2023/09/10 10:14:17;;;;;;;8.27;6.68;;;;;;;23.86;53.96;98072.78;6218552;28;20216;-86
2023/09/10 10:17:20;;;;;;;7.32;6.28;;;;;;;23.50;54.56;98007.75;6196458;28;20653;-86
2023/09/10 10:20:23;;;;;;;6.78;6.07;;;;;;;23.76;53.98;98039.66;6228393;28;20244;-86
2023/09/10 10:23:26;;;;;;;6.88;6.00;;;;;;;23.92;53.61;98043.50;6227512;28;20231;-86
2023/09/10 10:26:29;;;;;;;8.50;6.13;;;;;;;23.99;54.52;98037.56;6210066;28;20246;-86
2023/09/10 10:29:34;;;;;;;6.70;5.82;;;;;;;23.74;54.49;97987.47;6185403;28;20783;-86
2023/09/10 10:32:41;;;;;;;7.57;6.72;;;;;;;24.29;52.28;98061.09;6167549;28;20725;-86
2023/09/10 10:35:54;;;;;;;8.30;5.80;;;;;;;24.23;52.41;98028.91;6189787;28;20600;-86
2023/09/10 10:38:59;;;;;;;8.07;5.80;;;;;;;23.87;51.79;97960.09;6187946;28;20243;-86
2023/09/10 10:42:04;;;;;;;6.05;5.45;;;;;;;23.79;52.33;97931.00;6191769;28;20228;-86
2023/09/10 10:45:07;;;;;;;8.40;6.00;;;;;;;24.64;51.83;98055.63;6189539;28;20232;-86
2023/09/10 10:48:41;;;;;;;8.43;6.53;;;;;;;24.72;50.42;98052.06;6189418;28;20743;-85
2023/09/10 10:51:46;;;;;;;6.40;5.75;;;;;;;24.63;51.16;98030.31;6050360;29;20650;-85
2023/09/10 10:54:59;;;;;;;7.30;6.25;;;;;;;23.72;52.45;97878.19;6047830;29;20232;-88
2023/09/10 10:58:01;;;;;;;11.52;6.25;;;;;;;24.86;51.94;98039.03;6059962;29;20609;-84
2023/09/10 11:01:04;;;;;;;9.57;6.53;;;;;;;25.07;50.18;98044.56;6068033;28;20247;-85
2023/09/10 11:04:18;;;;;;;7.88;6.50;;;;;;;24.68;50.60;97983.81;6043510;29;20235;-86
2023/09/10 11:07:22;;;;;;;6.97;6.07;;;;;;;25.00;50.85;98033.34;6049651;29;20647;-86
2023/09/10 11:10:27;;;;;;;6.35;5.75;;;;;;;25.21;50.57;98038.91;6048865;29;20251;-85
2023/09/10 11:13:31;;;;;;;9.43;6.65;;;;;;;25.26;49.20;98035.97;6065911;29;20635;-86
2023/09/10 11:16:34;;;;;;;6.57;5.80;;;;;;;25.30;48.65;98044.31;6046891;29;20276;-88
2023/09/10 11:19:45;;;;;;;7.38;6.68;;;;;;;25.24;49.53;98030.06;6055483;29;21417;-85
2023/09/10 11:23:08;;;;;;;7.40;6.03;;;;;;;25.24;49.56;98021.88;6075762;29;20229;-85
2023/09/10 11:26:16;;;;;;;9.65;6.80;;;;;;;25.56;48.57;98036.75;6065308;29;20243;-94
2023/09/10 11:29:21;;;;;;;7.88;6.85;;;;;;;24.20;47.19;97832.41;6172974;28;20248;-94
2023/09/10 11:32:25;;;;;;;6.28;5.68;;;;;;;24.16;48.17;97823.31;6185935;28;20319;-87
2023/09/10 11:35:27;;;;;;;8.95;6.38;;;;;;;25.35;48.70;98009.47;6184996;28;20717;-87
2023/09/10 11:38:30;;;;;;;6.32;5.65;;;;;;;24.86;47.42;97919.09;6172565;28;20954;-88
2023/09/10 11:41:32;;;;;;;7.90;6.20;;;;;;;25.66;47.40;98038.31;6170732;28;20232;-90
2023/09/10 11:44:35;;;;;;;6.75;6.07;;;;;;;25.69;47.78;98029.47;6164700;28;20698;-89
2023/09/10 11:47:42;;;;;;;7.68;6.32;;;;;;;25.73;48.32;98017.53;6170337;28;20232;-89
2023/09/10 11:50:45;;;;;;;7.53;6.15;;;;;;;25.31;48.85;97959.44;6182607;28;20448;-90
2023/09/10 11:53:47;;;;;;;8.82;6.20;;;;;;;25.76;48.13;98016.09;6167929;28;20302;-90
2023/09/10 11:56:51;;;;;;;8.70;6.38;;;;;;;25.95;46.44;98021.09;6187606;28;20258;-88
2023/09/10 11:59:53;;;;;;;6.15;5.28;;;;;;;25.83;47.20;97994.53;6185055;28;20262;-88
2023/09/10 12:02:58;;;;;;;7.00;5.78;;;;;;;25.10;47.92;97871.38;6171565;28;20240;-89
2023/09/10 12:06:02;;;;;;;6.43;5.82;;;;;;;25.98;47.46;98015.78;6185034;28;20241;-86
2023/09/10 12:09:05;;;;;;;6.85;6.15;;;;;;;26.67;44.66;98016.25;6188650;28;20266;-90
2023/09/10 12:12:12;;;;;;;5.88;4.95;;;;;;;26.41;44.95;98011.03;6203735;28;20232;-89
2023/09/10 12:15:15;;;;;;;8.50;5.80;;;;;;;26.51;44.85;98018.84;6190765;28;20213;-89
2023/09/10 12:18:17;;;;;;;6.65;5.95;;;;;;;26.53;44.15;98013.03;6187978;28;20213;-88
2023/09/10 12:21:20;;;;;;;6.38;5.78;;;;;;;25.64;44.62;97885.84;6190006;28;20205;-88
2023/09/10 12:24:22;;;;;;;6.30;5.70;;;;;;;25.89;44.01;97927.69;6191435;28;20235;-92
2023/09/10 12:27:24;;;;;;;8.13;6.00;;;;;;;26.48;43.90;98001.16;6187786;28;20232;-87
2023/09/10 12:30:27;;;;;;;6.63;6.03;;;;;;;25.11;43.91;97789.25;6168466;28;20232;-92
2023/09/10 12:33:30;;;;;;;6.63;5.80;;;;;;;25.43;44.03;97855.88;6170617;28;20224;-90
2023/09/10 12:36:32;;;;;;;7.57;5.80;;;;;;;25.93;45.04;97942.25;6188586;28;20224;-89
2023/09/10 12:39:34;;;;;;;6.78;5.80;;;;;;;25.25;44.57;97824.41;6186664;28;20235;-90
2023/09/10 12:42:39;;;;;;;6.05;5.40;;;;;;;25.77;44.34;97900.38;6188000;28;20224;-89
2023/09/10 12:45:41;;;;;;;6.45;5.40;;;;;;;25.82;44.20;97918.47;6184712;28;20584;-89
2023/09/10 12:48:43;;;;;;;8.25;5.55;;;;;;;24.99;44.44;97789.16;6189738;28;20617;-90
2023/09/10 12:51:46;;;;;;;7.28;5.60;;;;;;;25.87;45.01;97904.59;6195330;28;20565;-94
2023/09/10 12:54:49;;;;;;;5.85;5.35;;;;;;;25.96;45.18;97924.41;6188867;28;20269;-92
2023/09/10 12:57:55;;;;;;;5.97;5.30;;;;;;;26.03;46.23;97941.03;6186640;28;20220;-89
2023/09/10 13:00:58;;;;;;;6.75;5.57;;;;;;;25.56;44.54;97850.44;6182856;28;20617;-90
2023/09/10 13:04:01;;;;;;;8.10;5.93;;;;;;;25.54;44.07;97833.63;6155587;28;20332;-90
2023/09/10 13:07:04;;;;;;;6.30;5.43;;;;;;;26.33;44.27;97928.03;6169874;28;20237;-90
2023/09/10 13:10:12;;;;;;;8.10;6.13;;;;;;;26.92;42.31;97973.31;6197826;28;20664;-93
2023/09/10 13:13:16;;;;;;;6.55;5.28;;;;;;;26.74;43.37;97978.19;6189775;28;20582;-87
2023/09/10 13:16:19;;;;;;;7.15;5.75;;;;;;;26.23;43.64;97912.09;6181751;28;20256;-91
2023/09/10 13:19:21;;;;;;;6.88;5.47;;;;;;;26.39;43.22;97945.78;6166011;28;20319;-91
2023/09/10 13:22:23;;;;;;;6.78;5.68;;;;;;;26.14;44.17;97908.66;6192631;28;20240;-94
2023/09/10 13:25:28;;;;;;;6.65;5.57;;;;;;;26.19;44.94;97917.41;6181927;28;20228;-88
2023/09/10 13:28:31;;;;;;;6.10;5.40;;;;;;;26.12;45.39;97924.59;6170967;28;20613;-91
2023/09/10 13:31:34;;;;;;;6.90;5.45;;;;;;;25.72;46.31;97879.50;6147971;28;20280;-85
2023/09/10 13:34:36;;;;;;;7.90;5.75;;;;;;;25.77;46.37;97896.84;6146727;28;20233;-85
2023/09/10 13:37:38;;;;;;;6.07;5.47;;;;;;;26.19;45.41;97969.31;6156154;28;20245;-85
2023/09/10 13:40:41;;;;;;;7.18;5.80;;;;;;;26.43;43.67;97965.06;6133764;28;20701;-85
2023/09/10 13:43:44;;;;;;;5.72;5.13;;;;;;;25.97;44.21;97896.78;6152173;28;20226;-86
2023/09/10 13:46:46;;;;;;;6.03;5.43;;;;;;;25.84;45.38;97864.31;6155075;28;20722;-85
2023/09/10 13:49:49;;;;;;;7.22;6.20;;;;;;;26.36;44.20;97951.16;6146427;28;20230;-85
2023/09/10 13:52:52;;;;;;;7.45;4.75;;;;;;;25.62;44.69;97833.53;6149432;28;20237;-85
2023/09/10 13:55:55;;;;;;;5.10;4.68;;;;;;;26.21;46.30;97936.22;6125019;28;20307;-85
2023/09/10 13:58:59;;;;;;;7.05;5.75;;;;;;;26.14;45.77;97955.88;6146907;28;20233;-85
2023/09/10 14:02:02;;;;;;;7.80;5.30;;;;;;;26.08;43.94;97920.94;6153017;28;20308;-85
2023/09/10 14:05:07;;;;;;;7.90;5.45;;;;;;;26.11;45.27;97940.16;6144673;28;20268;-86
2023/09/10 14:08:10;;;;;;;6.50;5.35;;;;;;;26.06;42.60;97909.53;6153269;28;20239;-85
2023/09/10 14:11:12;;;;;;;7.63;4.88;;;;;;;26.37;41.84;97941.81;6147095;28;20307;-85
2023/09/10 14:14:15;;;;;;;7.40;5.38;;;;;;;26.53;41.65;97952.91;6152699;28;20225;-85